Time;durP1;ratioP1;P1;durP2;ratioP2;P2;SDS_P1;SDS_P2;PMS_P1;PMS_P2;Temp;Humidity;BMP_temperature;BMP_pressure;BME280_temperature;BME280_humidity;BME280_pressure;Samples;Min_cycle;Max_cycle;Signal;HPM_P1;HPM_P2
2022/04/04 00:01:23;;;;;;;6.70;4.93;;;;;;;;;;5001288;28;20254;-81
2022/04/04 00:03:50;;;;;;;8.33;5.83;;;;;;;;;;5002873;28;20211;-81
2022/04/04 00:06:18;;;;;;;7.87;5.90;;;;;;;;;;5005273;28;20243;-81
2022/04/04 00:08:45;;;;;;;7.43;5.50;;;;;;;;;;5007602;28;20238;-80
2022/04/04 00:11:12;;;;;;;6.97;5.90;;;;;;;;;;5001922;28;20271;-80
2022/04/04 00:13:40;;;;;;;5.53;5.03;;;;;;;;;;5002895;28;20214;-80
2022/04/04 00:16:09;;;;;;;11.43;6.13;;;;;;;;;;5003318;28;20251;-80
2022/04/04 00:18:36;;;;;;;7.23;6.20;;;;;;;;;;4987148;28;20664;-81
2022/04/04 00:21:04;;;;;;;8.47;6.40;;;;;;;;;;5002760;28;20242;-81
2022/04/04 00:23:31;;;;;;;8.67;5.30;;;;;;;;;;5001772;28;20214;-82
2022/04/04 00:25:58;;;;;;;7.33;6.30;;;;;;;;;;5015525;28;20222;-80
2022/04/04 00:28:25;;;;;;;7.47;6.10;;;;;;;;;;5016488;28;20421;-80
2022/04/04 00:30:52;;;;;;;9.37;6.27;;;;;;;;;;5015863;28;20243;-81
2022/04/04 00:33:21;;;;;;;8.40;5.87;;;;;;;;;;5010005;28;20219;-80
2022/04/04 00:35:48;;;;;;;5.87;5.17;;;;;;;;;;5004043;28;20266;-80
2022/04/04 00:38:16;;;;;;;7.73;6.00;;;;;;;;;;5002998;28;20269;-80
2022/04/04 00:40:43;;;;;;;6.80;5.80;;;;;;;;;;5008339;28;20243;-80
2022/04/04 00:43:10;;;;;;;8.50;5.70;;;;;;;;;;5006810;28;20214;-80
2022/04/04 00:45:38;;;;;;;6.30;5.63;;;;;;;;;;5004461;28;20243;-80
2022/04/04 00:48:05;;;;;;;7.03;6.33;;;;;;;;;;5007223;28;20227;-80
2022/04/04 00:50:33;;;;;;;6.23;5.63;;;;;;;;;;5002707;28;20235;-80
2022/04/04 00:53:01;;;;;;;6.17;5.57;;;;;;;;;;5003272;28;20207;-80
2022/04/04 00:55:29;;;;;;;8.80;6.00;;;;;;;;;;5003180;28;20238;-80
2022/04/04 00:57:56;;;;;;;6.73;5.87;;;;;;;;;;5003310;28;20218;-80
2022/04/04 01:00:24;;;;;;;7.47;6.67;;;;;;;;;;5002108;28;20254;-81
2022/04/04 01:02:51;;;;;;;7.23;6.37;;;;;;;;;;4986276;28;20222;-80
2022/04/04 01:05:18;;;;;;;6.30;5.80;;;;;;;;;;5002237;28;20242;-80
2022/04/04 01:07:47;;;;;;;7.63;5.93;;;;;;;;;;4995754;28;20218;-81
2022/04/04 01:10:14;;;;;;;6.13;5.53;;;;;;;;;;4995009;28;20207;-81
2022/04/04 01:12:50;;;;;;;7.83;5.80;;;;;;;;;;5009282;28;20359;-81
2022/04/04 01:15:17;;;;;;;6.67;5.10;;;;;;;;;;5005947;28;20249;-81
2022/04/04 01:17:45;;;;;;;8.13;6.40;;;;;;;;;;5013677;28;20211;-81
2022/04/04 01:20:12;;;;;;;7.17;6.10;;;;;;;;;;5011869;28;20294;-81
2022/04/04 01:22:40;;;;;;;7.03;6.33;;;;;;;;;;5003900;28;20211;-81
2022/04/04 01:25:09;;;;;;;8.90;6.40;;;;;;;;;;5003196;28;20207;-80
2022/04/04 01:27:36;;;;;;;7.50;5.27;;;;;;;;;;5011661;28;20682;-80
2022/04/04 01:30:03;;;;;;;6.03;5.43;;;;;;;;;;5004442;28;20204;-80
2022/04/04 01:32:33;;;;;;;7.03;6.00;;;;;;;;;;5004869;28;20218;-81
2022/04/04 01:35:00;;;;;;;7.73;6.10;;;;;;;;;;5000272;28;20255;-80
2022/04/04 01:37:27;;;;;;;7.67;6.20;;;;;;;;;;5015883;28;20234;-80
2022/04/04 01:39:54;;;;;;;6.83;5.37;;;;;;;;;;5012927;28;20223;-80
2022/04/04 01:42:22;;;;;;;6.70;6.00;;;;;;;;;;5004851;28;20242;-80
2022/04/04 01:44:49;;;;;;;6.97;6.30;;;;;;;;;;5006891;28;20271;-80
2022/04/04 01:47:16;;;;;;;5.87;5.23;;;;;;;;;;5002946;28;20596;-79
2022/04/04 01:49:43;;;;;;;8.40;5.80;;;;;;;;;;5007650;28;20203;-79
2022/04/04 01:52:10;;;;;;;6.30;5.63;;;;;;;;;;5004684;28;20234;-80
2022/04/04 01:54:37;;;;;;;6.73;6.00;;;;;;;;;;5006764;28;20211;-80
2022/04/04 01:57:05;;;;;;;7.10;5.90;;;;;;;;;;5007021;28;20242;-80
2022/04/04 01:59:33;;;;;;;6.80;6.10;;;;;;;;;;5005048;28;20282;-80
2022/04/04 02:02:00;;;;;;;7.20;6.23;;;;;;;;;;5006403;28;20242;-80
2022/04/04 02:04:27;;;;;;;6.70;6.00;;;;;;;;;;5006551;28;20203;-81
2022/04/04 02:06:54;;;;;;;7.20;6.40;;;;;;;;;;5005105;28;20721;-79
2022/04/04 02:09:21;;;;;;;7.10;6.40;;;;;;;;;;5006665;28;20211;-80
2022/04/04 02:11:49;;;;;;;8.03;5.97;;;;;;;;;;5006884;28;20250;-79
2022/04/04 02:14:16;;;;;;;6.77;6.03;;;;;;;;;;5007261;28;20315;-79
2022/04/04 02:16:45;;;;;;;7.73;6.00;;;;;;;;;;5006071;28;20232;-79
2022/04/04 02:19:12;;;;;;;6.40;5.70;;;;;;;;;;5004827;28;20206;-80
2022/04/04 02:21:39;;;;;;;7.13;6.17;;;;;;;;;;5006890;28;20232;-80
2022/04/04 02:24:06;;;;;;;6.17;5.57;;;;;;;;;;5006831;28;20228;-81
2022/04/04 02:26:33;;;;;;;6.60;5.93;;;;;;;;;;5005776;28;20244;-80
2022/04/04 02:29:00;;;;;;;6.77;6.13;;;;;;;;;;5001559;28;20212;-80
2022/04/04 02:31:27;;;;;;;7.70;5.97;;;;;;;;;;5011944;28;20248;-80
2022/04/04 02:33:56;;;;;;;6.73;5.93;;;;;;;;;;5009347;28;20213;-80
2022/04/04 02:36:23;;;;;;;7.40;6.53;;;;;;;;;;5010428;28;20241;-81
2022/04/04 02:38:50;;;;;;;7.80;6.30;;;;;;;;;;5011747;28;20210;-80
2022/04/04 02:41:17;;;;;;;9.63;6.40;;;;;;;;;;5007024;28;20251;-80
2022/04/04 02:43:44;;;;;;;6.80;6.10;;;;;;;;;;5008198;28;20214;-80
2022/04/04 02:46:12;;;;;;;7.77;6.70;;;;;;;;;;5008081;28;20698;-81
2022/04/04 02:48:39;;;;;;;8.30;6.50;;;;;;;;;;5007593;28;20198;-81
2022/04/04 02:51:08;;;;;;;7.97;7.17;;;;;;;;;;5006344;28;20265;-81
2022/04/04 02:53:35;;;;;;;10.93;6.47;;;;;;;;;;5006418;28;20631;-81
2022/04/04 02:58:47;;;;;;;9.93;7.60;;;;;;;;;;5006008;28;20236;-83
2022/04/04 03:01:14;;;;;;;7.10;6.40;;;;;;;;;;5005603;28;20256;-81
2022/04/04 03:03:41;;;;;;;7.60;6.50;;;;;;;;;;5006473;28;20206;-81
2022/04/04 03:06:10;;;;;;;9.87;7.33;;;;;;;;;;5004539;28;20262;-81
2022/04/04 03:08:37;;;;;;;8.07;7.33;;;;;;;;;;5006936;28;20206;-81
2022/04/04 03:11:04;;;;;;;7.57;6.73;;;;;;;;;;5006402;28;20255;-80
2022/04/04 03:13:31;;;;;;;8.10;7.27;;;;;;;;;;5012898;28;20219;-81
2022/04/04 03:15:58;;;;;;;7.93;6.97;;;;;;;;;;5013620;28;20255;-80
2022/04/04 03:18:25;;;;;;;8.80;7.10;;;;;;;;;;5011187;28;20209;-81
2022/04/04 03:20:52;;;;;;;8.43;7.50;;;;;;;;;;5011081;28;20719;-80
2022/04/04 03:23:22;;;;;;;8.53;7.50;;;;;;;;;;5014046;28;20226;-81
2022/04/04 03:25:49;;;;;;;10.17;8.10;;;;;;;;;;5013084;28;20269;-81
2022/04/04 03:28:16;;;;;;;9.27;7.90;;;;;;;;;;5013660;28;20218;-82
2022/04/04 03:30:43;;;;;;;9.33;7.80;;;;;;;;;;5013816;28;20241;-81
2022/04/04 03:33:10;;;;;;;8.50;7.23;;;;;;;;;;5014716;28;20213;-81
2022/04/04 03:35:37;;;;;;;7.93;7.17;;;;;;;;;;5015085;28;20226;-81
2022/04/04 03:38:07;;;;;;;8.27;7.47;;;;;;;;;;5014825;28;20220;-81
2022/04/04 03:40:36;;;;;;;11.30;8.83;;;;;;;;;;5015743;28;20241;-81
2022/04/04 03:43:03;;;;;;;9.10;7.23;;;;;;;;;;5017309;28;20198;-81
2022/04/04 03:45:30;;;;;;;8.40;7.50;;;;;;;;;;5016816;28;20217;-82
2022/04/04 03:47:58;;;;;;;8.73;7.63;;;;;;;;;;5017671;28;20197;-82
2022/04/04 03:50:26;;;;;;;8.63;7.73;;;;;;;;;;5016443;28;20237;-81
2022/04/04 03:52:55;;;;;;;8.73;7.83;;;;;;;;;;5016757;28;20198;-82
2022/04/04 03:55:23;;;;;;;9.40;8.03;;;;;;;;;;5013818;28;20233;-81
2022/04/04 03:57:52;;;;;;;9.03;8.13;;;;;;;;;;5011508;28;20209;-81
2022/04/04 04:00:21;;;;;;;9.77;7.97;;;;;;;;;;5008795;28;20521;-81
2022/04/04 04:02:48;;;;;;;9.77;8.03;;;;;;;;;;5011802;28;20207;-81
2022/04/04 04:05:15;;;;;;;11.23;8.03;;;;;;;;;;5011320;28;20240;-82
2022/04/04 04:07:42;;;;;;;10.57;8.63;;;;;;;;;;5001141;28;20217;-82
2022/04/04 04:10:11;;;;;;;9.70;8.53;;;;;;;;;;5002003;28;20205;-82
2022/04/04 04:12:39;;;;;;;9.53;8.07;;;;;;;;;;5000858;28;20215;-82
2022/04/04 04:15:09;;;;;;;9.03;8.13;;;;;;;;;;5008286;28;20292;-82
2022/04/04 04:17:36;;;;;;;10.47;7.33;;;;;;;;;;5016933;28;20213;-82
2022/04/04 04:20:23;;;;;;;12.47;8.80;;;;;;;;;;5024586;28;20215;-83
2022/04/04 04:22:52;;;;;;;10.03;8.23;;;;;;;;;;5024310;28;20205;-81
2022/04/04 04:25:19;;;;;;;8.87;7.90;;;;;;;;;;5019988;28;20230;-81
2022/04/04 04:27:47;;;;;;;10.97;8.87;;;;;;;;;;5011946;28;20209;-82
2022/04/04 04:30:16;;;;;;;11.80;9.53;;;;;;;;;;5004783;28;20201;-81
2022/04/04 04:32:44;;;;;;;20.13;12.00;;;;;;;;;;5007075;28;20213;-81
2022/04/04 04:35:12;;;;;;;12.20;9.10;;;;;;;;;;5005332;28;20243;-81
2022/04/04 04:37:39;;;;;;;12.70;8.87;;;;;;;;;;5012384;28;20736;-82
2022/04/04 04:40:07;;;;;;;9.07;7.80;;;;;;;;;;5010173;28;20209;-82
2022/04/04 04:42:34;;;;;;;9.93;7.10;;;;;;;;;;5013262;28;20210;-82
2022/04/04 04:45:02;;;;;;;10.80;7.83;;;;;;;;;;5018183;28;20202;-83
2022/04/04 04:47:31;;;;;;;9.27;7.37;;;;;;;;;;5008378;28;20221;-81
2022/04/04 04:49:59;;;;;;;10.17;8.60;;;;;;;;;;5007151;28;20559;-82
2022/04/04 04:52:26;;;;;;;10.00;8.17;;;;;;;;;;5002044;28;20552;-81
2022/04/04 04:54:53;;;;;;;9.20;7.40;;;;;;;;;;5003995;28;20419;-83
2022/04/04 04:57:21;;;;;;;8.67;6.60;;;;;;;;;;5002167;28;20234;-81
2022/04/04 04:59:48;;;;;;;7.93;6.97;;;;;;;;;;4998031;28;20243;-83
2022/04/04 05:02:16;;;;;;;10.20;8.57;;;;;;;;;;4987676;28;20252;-82
2022/04/04 05:04:45;;;;;;;12.70;9.57;;;;;;;;;;4981385;28;20204;-82
2022/04/04 05:07:13;;;;;;;9.77;8.77;;;;;;;;;;4997084;28;20279;-83
2022/04/04 05:09:41;;;;;;;8.70;7.73;;;;;;;;;;5002133;28;20214;-80
2022/04/04 05:12:08;;;;;;;10.17;7.50;;;;;;;;;;4998749;28;20283;-80
2022/04/04 05:14:36;;;;;;;10.27;7.97;;;;;;;;;;5006512;28;20210;-80
2022/04/04 05:17:04;;;;;;;10.17;9.10;;;;;;;;;;5013003;28;20558;-82
2022/04/04 05:19:31;;;;;;;9.50;7.67;;;;;;;;;;5006098;28;20287;-79
2022/04/04 05:22:00;;;;;;;12.10;8.27;;;;;;;;;;5002469;28;20225;-81
2022/04/04 05:24:28;;;;;;;9.27;7.80;;;;;;;;;;5007888;28;20239;-81
2022/04/04 05:26:56;;;;;;;10.53;9.00;;;;;;;;;;5000412;28;20295;-79
2022/04/04 05:29:26;;;;;;;12.43;8.67;;;;;;;;;;5003731;28;20209;-82
2022/04/04 05:31:53;;;;;;;10.23;8.30;;;;;;;;;;5008283;28;20238;-82
2022/04/04 05:34:21;;;;;;;11.97;9.43;;;;;;;;;;5002196;28;20211;-80
2022/04/04 05:36:48;;;;;;;11.80;9.47;;;;;;;;;;4996550;28;20265;-82
2022/04/04 05:39:16;;;;;;;10.37;8.67;;;;;;;;;;5006341;28;20210;-80
2022/04/04 05:41:43;;;;;;;14.00;10.50;;;;;;;;;;5009732;28;20314;-79
2022/04/04 05:44:11;;;;;;;25.87;12.10;;;;;;;;;;5015161;28;20208;-82
2022/04/04 05:46:38;;;;;;;29.83;14.07;;;;;;;;;;5017546;28;20243;-82
2022/04/04 05:49:05;;;;;;;9.77;7.37;;;;;;;;;;5018045;28;20206;-80
2022/04/04 05:51:33;;;;;;;10.47;8.33;;;;;;;;;;5014219;28;20290;-80
2022/04/04 05:54:01;;;;;;;11.07;8.00;;;;;;;;;;5024314;28;20245;-80
2022/04/04 05:56:29;;;;;;;8.17;7.40;;;;;;;;;;5026835;28;20233;-81
2022/04/04 05:58:56;;;;;;;13.63;7.80;;;;;;;;;;4989719;28;20207;-80
2022/04/04 06:01:23;;;;;;;9.23;7.67;;;;;;;;;;4987433;28;20250;-80
2022/04/04 06:03:50;;;;;;;11.73;9.33;;;;;;;;;;4987991;28;20210;-79
2022/04/04 06:06:18;;;;;;;10.00;8.17;;;;;;;;;;4986343;28;20246;-79
2022/04/04 06:08:45;;;;;;;9.10;8.17;;;;;;;;;;4988028;28;20203;-79
2022/04/04 06:11:12;;;;;;;12.03;9.13;;;;;;;;;;5006923;28;20237;-80
2022/04/04 06:13:41;;;;;;;12.07;9.20;;;;;;;;;;4988556;28;20212;-80
2022/04/04 06:16:09;;;;;;;9.70;8.10;;;;;;;;;;4987070;28;20250;-80
2022/04/04 06:18:36;;;;;;;8.70;7.80;;;;;;;;;;4988582;28;20211;-79
2022/04/04 06:21:03;;;;;;;11.07;6.93;;;;;;;;;;4987867;28;20240;-79
2022/04/04 06:23:33;;;;;;;11.13;7.63;;;;;;;;;;4988459;28;20237;-80
2022/04/04 06:26:00;;;;;;;9.63;7.60;;;;;;;;;;4988390;28;20237;-79
2022/04/04 06:28:30;;;;;;;9.27;7.43;;;;;;;;;;4988414;28;20212;-80
2022/04/04 06:30:59;;;;;;;7.93;6.00;;;;;;;;;;4987443;28;20244;-79
2022/04/04 06:33:26;;;;;;;9.97;8.53;;;;;;;;;;5003164;28;20224;-80
2022/04/04 06:35:53;;;;;;;9.13;7.73;;;;;;;;;;5007690;28;20236;-80
2022/04/04 06:38:20;;;;;;;7.07;6.13;;;;;;;;;;5006953;28;20214;-81
2022/04/04 06:40:49;;;;;;;8.10;7.30;;;;;;;;;;4992109;28;20249;-81
2022/04/04 06:43:17;;;;;;;7.83;6.50;;;;;;;;;;4988164;28;20219;-80
2022/04/04 06:45:44;;;;;;;4.60;4.17;;;;;;;;;;4986738;28;20243;-80
2022/04/04 06:48:13;;;;;;;9.90;7.27;;;;;;;;;;4988175;28;20205;-82
2022/04/04 06:50:40;;;;;;;7.73;6.73;;;;;;;;;;4986538;28;20248;-80
2022/04/04 06:53:08;;;;;;;9.27;6.60;;;;;;;;;;5003645;28;20211;-80
2022/04/04 06:55:35;;;;;;;7.00;6.30;;;;;;;;;;5007014;28;20243;-80
2022/04/04 06:58:02;;;;;;;7.43;5.73;;;;;;;;;;5015879;28;20235;-80
2022/04/04 07:00:29;;;;;;;6.93;4.90;;;;;;;;;;5024769;28;20242;-80
2022/04/04 07:02:58;;;;;;;8.73;6.27;;;;;;;;;;5035034;28;20239;-80
2022/04/04 07:05:26;;;;;;;6.03;5.10;;;;;;;;;;5033446;28;20244;-79
2022/04/04 07:07:53;;;;;;;8.00;6.60;;;;;;;;;;5034463;28;20199;-80
2022/04/04 07:10:21;;;;;;;7.50;6.03;;;;;;;;;;5032561;28;20235;-81
2022/04/04 07:12:48;;;;;;;7.10;4.67;;;;;;;;;;5035174;28;20626;-81
2022/04/04 07:15:15;;;;;;;6.47;5.80;;;;;;;;;;5034516;28;20243;-81
2022/04/04 07:17:43;;;;;;;6.73;6.13;;;;;;;;;;5035653;28;20195;-81
2022/04/04 07:20:11;;;;;;;6.73;6.10;;;;;;;;;;5033154;28;20196;-81
2022/04/04 07:22:40;;;;;;;8.00;5.90;;;;;;;;;;5025067;28;20227;-80
2022/04/04 07:25:09;;;;;;;6.57;5.97;;;;;;;;;;5025439;28;20307;-81
2022/04/04 07:27:36;;;;;;;7.73;6.30;;;;;;;;;;5026659;28;20207;-80
2022/04/04 07:30:04;;;;;;;6.83;6.13;;;;;;;;;;5008219;28;20211;-80
2022/04/04 07:32:31;;;;;;;8.60;6.40;;;;;;;;;;5015090;28;20220;-82
2022/04/04 07:34:58;;;;;;;6.43;5.13;;;;;;;;;;5012679;28;20203;-81
2022/04/04 07:37:25;;;;;;;6.40;5.63;;;;;;;;;;5012505;28;20219;-81
2022/04/04 07:39:54;;;;;;;6.87;6.23;;;;;;;;;;5011980;28;20208;-81
2022/04/04 07:42:21;;;;;;;4.67;4.23;;;;;;;;;;5011750;28;20242;-81
2022/04/04 07:44:48;;;;;;;5.80;5.20;;;;;;;;;;5012878;28;20219;-81
2022/04/04 07:47:15;;;;;;;6.87;6.17;;;;;;;;;;5012455;28;20237;-81
2022/04/04 07:49:42;;;;;;;7.53;6.33;;;;;;;;;;5012131;28;20216;-81
2022/04/04 07:52:09;;;;;;;7.87;4.77;;;;;;;;;;5011027;28;20238;-81
2022/04/04 07:54:37;;;;;;;5.97;5.37;;;;;;;;;;5011420;28;20257;-80
2022/04/04 07:57:06;;;;;;;6.33;5.33;;;;;;;;;;5011792;28;20265;-80
2022/04/04 07:59:33;;;;;;;5.13;4.63;;;;;;;;;;5011824;28;20383;-81
2022/04/04 08:02:00;;;;;;;8.33;5.70;;;;;;;;;;5012937;28;20246;-82
2022/04/04 08:04:27;;;;;;;5.80;5.23;;;;;;;;;;5011709;28;20208;-81
2022/04/04 08:06:54;;;;;;;5.97;4.87;;;;;;;;;;5019634;28;20239;-80
2022/04/04 08:09:21;;;;;;;5.97;5.20;;;;;;;;;;5011156;28;20797;-81
2022/04/04 08:11:48;;;;;;;4.70;4.20;;;;;;;;;;5011150;28;20335;-81
2022/04/04 08:14:16;;;;;;;5.73;4.57;;;;;;;;;;5019501;28;20207;-81
2022/04/04 08:16:44;;;;;;;6.07;4.67;;;;;;;;;;5028033;28;20323;-81
2022/04/04 08:19:12;;;;;;;4.30;3.93;;;;;;;;;;5033426;28;20207;-82
2022/04/04 08:21:41;;;;;;;3.87;3.57;;;;;;;;;;5024743;28;20238;-81
2022/04/04 08:24:08;;;;;;;6.40;5.10;;;;;;;;;;5023564;28;20198;-81
2022/04/04 08:26:35;;;;;;;6.03;5.33;;;;;;;;;;5032834;28;20250;-81
2022/04/04 08:29:02;;;;;;;7.63;5.23;;;;;;;;;;5023597;28;20204;-81
2022/04/04 08:31:31;;;;;;;4.77;4.20;;;;;;;;;;5023450;28;20231;-81
2022/04/04 08:33:58;;;;;;;6.20;4.53;;;;;;;;;;5024254;28;20212;-81
2022/04/04 08:36:25;;;;;;;6.07;4.63;;;;;;;;;;5023450;28;20241;-81
2022/04/04 08:38:52;;;;;;;5.70;5.10;;;;;;;;;;5031899;28;20215;-82
2022/04/04 08:41:20;;;;;;;4.97;4.57;;;;;;;;;;5031572;28;20250;-82
2022/04/04 08:43:49;;;;;;;6.70;5.43;;;;;;;;;;5032376;28;20211;-82
2022/04/04 08:46:17;;;;;;;4.10;3.70;;;;;;;;;;5010380;28;20239;-82
2022/04/04 08:48:46;;;;;;;6.57;5.00;;;;;;;;;;4992571;28;20211;-82
2022/04/04 08:51:14;;;;;;;5.83;5.23;;;;;;;;;;4992042;28;20256;-82
2022/04/04 08:53:41;;;;;;;5.33;4.83;;;;;;;;;;4991990;28;20212;-83
2022/04/04 08:56:09;;;;;;;5.63;5.03;;;;;;;;;;4986431;28;20316;-84
2022/04/04 08:58:37;;;;;;;7.00;6.17;;;;;;;;;;5001848;28;20256;-84
2022/04/04 09:01:05;;;;;;;5.93;5.23;;;;;;;;;;5009971;28;20270;-83
2022/04/04 09:03:32;;;;;;;6.23;5.63;;;;;;;;;;5011770;28;20223;-82
2022/04/04 09:06:02;;;;;;;5.60;4.97;;;;;;;;;;5009764;28;20228;-82
2022/04/04 09:08:29;;;;;;;7.43;6.00;;;;;;;;;;5024247;28;20204;-83
2022/04/04 09:11:00;;;;;;;5.87;5.27;;;;;;;;;;5000900;28;20255;-83
2022/04/04 09:13:27;;;;;;;6.33;5.73;;;;;;;;;;5017448;28;20791;-83
2022/04/04 09:15:56;;;;;;;4.93;4.43;;;;;;;;;;5023635;28;20239;-83
2022/04/04 09:18:39;;;;;;;6.17;5.57;;;;;;;;;;5028997;28;20203;-83
2022/04/04 09:21:08;;;;;;;6.27;5.20;;;;;;;;;;5029671;28;20235;-83
2022/04/04 09:23:36;;;;;;;6.13;4.83;;;;;;;;;;5028443;28;20232;-82
2022/04/04 09:26:05;;;;;;;5.47;4.97;;;;;;;;;;5028156;28;20243;-83
2022/04/04 09:28:32;;;;;;;7.97;6.20;;;;;;;;;;5020179;28;20204;-82
2022/04/04 09:31:05;;;;;;;4.87;4.47;;;;;;;;;;5009350;28;20240;-82
2022/04/04 09:33:36;;;;;;;6.53;5.70;;;;;;;;;;5010418;28;20219;-83
2022/04/04 09:36:03;;;;;;;5.47;4.97;;;;;;;;;;5009800;28;20232;-83
2022/04/04 09:38:33;;;;;;;4.93;4.50;;;;;;;;;;5016112;28;20223;-83
2022/04/04 09:41:05;;;;;;;6.43;4.73;;;;;;;;;;5020203;28;20327;-82
2022/04/04 09:43:49;;;;;;;5.83;4.90;;;;;;;;;;5019445;28;20231;-82
2022/04/04 09:46:17;;;;;;;6.70;5.67;;;;;;;;;;5018401;28;20266;-82
2022/04/04 09:48:58;;;;;;;6.87;5.40;;;;;;;;;;5020030;28;20211;-82
2022/04/04 09:51:35;;;;;;;6.47;5.67;;;;;;;;;;4998967;28;20247;-82
2022/04/04 09:54:04;;;;;;;6.47;5.53;;;;;;;;;;5014714;28;20215;-83
2022/04/04 09:56:31;;;;;;;5.37;4.87;;;;;;;;;;5015048;28;20242;-83
2022/04/04 09:58:58;;;;;;;5.30;4.73;;;;;;;;;;5019336;28;20254;-83
2022/04/04 10:01:25;;;;;;;4.17;3.77;;;;;;;;;;5020974;28;20246;-82
2022/04/04 10:03:53;;;;;;;8.20;5.13;;;;;;;;;;4980937;28;20236;-82
2022/04/04 10:06:20;;;;;;;3.93;3.57;;;;;;;;;;4980778;28;20267;-82
2022/04/04 10:08:51;;;;;;;5.07;3.57;;;;;;;;;;4980566;28;20262;-84
2022/04/04 10:11:20;;;;;;;4.83;3.70;;;;;;;;;;4984431;28;20243;-82
2022/04/04 10:13:48;;;;;;;4.23;3.87;;;;;;;;;;5001226;28;20290;-83
2022/04/04 10:16:15;;;;;;;3.70;3.33;;;;;;;;;;4999114;28;20561;-84
2022/04/04 10:18:44;;;;;;;3.90;3.60;;;;;;;;;;4999674;28;20208;-83
2022/04/04 10:21:11;;;;;;;4.60;4.20;;;;;;;;;;4999386;28;20271;-83
2022/04/04 10:23:39;;;;;;;4.10;3.70;;;;;;;;;;5000877;28;20235;-83
2022/04/04 10:26:07;;;;;;;3.83;3.53;;;;;;;;;;5000039;28;20916;-83
2022/04/04 10:28:37;;;;;;;4.17;3.50;;;;;;;;;;5002740;28;20267;-83
2022/04/04 10:31:12;;;;;;;4.80;3.77;;;;;;;;;;5000655;28;20242;-82
2022/04/04 10:33:39;;;;;;;5.97;4.20;;;;;;;;;;5005959;28;20218;-83
2022/04/04 10:36:07;;;;;;;4.87;4.23;;;;;;;;;;5019321;28;20235;-83
2022/04/04 10:38:36;;;;;;;4.93;4.53;;;;;;;;;;5019789;28;20214;-82
2022/04/04 10:41:06;;;;;;;4.17;3.87;;;;;;;;;;5018869;28;20243;-84
2022/04/04 10:43:35;;;;;;;3.70;3.43;;;;;;;;;;5027668;28;20211;-82
2022/04/04 10:46:04;;;;;;;3.67;3.37;;;;;;;;;;5021137;28;20729;-82
2022/04/04 10:48:32;;;;;;;4.10;3.70;;;;;;;;;;5020173;28;20207;-82
2022/04/04 10:51:03;;;;;;;3.63;3.33;;;;;;;;;;5018777;28;20239;-83
2022/04/04 10:53:37;;;;;;;3.67;3.37;;;;;;;;;;5018620;28;20211;-82
2022/04/04 10:56:05;;;;;;;6.20;3.97;;;;;;;;;;4998812;28;20242;-83
2022/04/04 10:58:33;;;;;;;4.20;3.80;;;;;;;;;;4998185;28;20220;-82
2022/04/04 11:01:10;;;;;;;4.13;3.73;;;;;;;;;;4999523;28;20239;-84
2022/04/04 11:03:38;;;;;;;4.63;3.33;;;;;;;;;;4998817;28;20683;-83
2022/04/04 11:09:05;;;;;;;5.30;3.60;;;;;;;;;;4996303;28;20195;-82
2022/04/04 11:11:56;;;;;;;4.27;3.70;;;;;;;;;;4995778;28;20327;-84
2022/04/04 11:14:42;;;;;;;3.87;3.57;;;;;;;;;;4972023;28;20676;-84
2022/04/04 11:17:23;;;;;;;4.13;3.73;;;;;;;;;;4994983;28;20232;-84
2022/04/04 11:19:51;;;;;;;4.57;4.07;;;;;;;;;;4995472;28;20235;-83
2022/04/04 11:22:19;;;;;;;4.10;3.70;;;;;;;;;;4994883;28;20250;-84
2022/04/04 11:24:51;;;;;;;4.70;3.60;;;;;;;;;;4997102;28;20258;-83
2022/04/04 11:27:18;;;;;;;4.03;3.10;;;;;;;;;;4995387;28;20244;-84
2022/04/04 11:29:46;;;;;;;4.00;3.70;;;;;;;;;;4996777;28;20306;-84
2022/04/04 11:32:16;;;;;;;3.97;3.67;;;;;;;;;;4997118;28;20323;-85
2022/04/04 11:34:45;;;;;;;4.80;4.30;;;;;;;;;;4996907;28;20208;-84
2022/04/04 11:37:19;;;;;;;4.43;3.97;;;;;;;;;;4995226;28;20236;-83
2022/04/04 11:39:47;;;;;;;4.93;4.37;;;;;;;;;;4995517;28;20283;-84
2022/04/04 11:42:15;;;;;;;3.80;3.47;;;;;;;;;;4993980;28;20243;-83
2022/04/04 11:44:49;;;;;;;3.90;3.60;;;;;;;;;;4996417;28;20235;-83
2022/04/04 11:47:17;;;;;;;3.53;3.23;;;;;;;;;;4995709;28;20262;-83
2022/04/04 11:49:46;;;;;;;5.13;3.97;;;;;;;;;;4994353;28;20207;-84
2022/04/04 11:52:18;;;;;;;6.23;3.60;;;;;;;;;;4994289;28;20239;-84
2022/04/04 11:54:46;;;;;;;3.90;3.60;;;;;;;;;;4996008;28;20192;-84
2022/04/04 11:57:13;;;;;;;3.67;3.37;;;;;;;;;;4995148;28;20321;-84
2022/04/04 11:59:43;;;;;;;4.57;3.97;;;;;;;;;;4993654;28;20574;-84
2022/04/04 12:02:11;;;;;;;5.13;3.27;;;;;;;;;;4993462;28;20247;-84
2022/04/04 12:04:39;;;;;;;4.63;3.47;;;;;;;;;;4994641;28;20204;-84
2022/04/04 12:07:09;;;;;;;3.33;3.10;;;;;;;;;;4996017;28;20231;-83
2022/04/04 12:09:36;;;;;;;5.37;3.10;;;;;;;;;;4998974;28;20730;-84
2022/04/04 12:12:05;;;;;;;3.90;3.60;;;;;;;;;;4998840;28;20239;-83
2022/04/04 12:14:33;;;;;;;3.57;3.27;;;;;;;;;;4993072;28;20243;-83
2022/04/04 12:17:00;;;;;;;8.97;4.03;;;;;;;;;;4993731;28;20679;-83
2022/04/04 12:19:28;;;;;;;3.23;2.90;;;;;;;;;;4994321;28;20287;-83
2022/04/04 12:21:56;;;;;;;6.43;3.50;;;;;;;;;;4992343;28;20255;-83
2022/04/04 12:27:12;;;;;;;4.87;3.10;;;;;;;;;;4990793;28;20317;-83
2022/04/04 12:29:46;;;;;;;3.67;3.03;;;;;;;;;;4991685;28;20204;-83
2022/04/04 12:32:15;;;;;;;4.30;3.87;;;;;;;;;;4992411;28;20239;-83
2022/04/04 12:34:42;;;;;;;3.07;2.87;;;;;;;;;;4993992;28;20663;-83
2022/04/04 12:37:10;;;;;;;5.83;4.33;;;;;;;;;;4993244;28;20231;-83
2022/04/04 12:39:38;;;;;;;3.77;3.47;;;;;;;;;;4992904;28;20266;-83
2022/04/04 12:42:08;;;;;;;4.13;3.73;;;;;;;;;;4992731;28;20251;-83
2022/04/04 12:44:35;;;;;;;3.23;2.93;;;;;;;;;;4993628;28;20255;-83
2022/04/04 12:47:06;;;;;;;5.27;3.83;;;;;;;;;;4993095;28;20232;-83
2022/04/04 12:49:33;;;;;;;3.23;2.90;;;;;;;;;;4992979;28;20254;-83
2022/04/04 12:52:03;;;;;;;4.93;4.10;;;;;;;;;;5000821;28;20232;-83
2022/04/04 12:54:31;;;;;;;7.30;3.53;;;;;;;;;;4993512;28;20283;-83
2022/04/04 12:57:01;;;;;;;7.80;3.97;;;;;;;;;;4992062;28;20255;-83
2022/04/04 12:59:28;;;;;;;3.80;3.50;;;;;;;;;;4993067;28;20294;-83
2022/04/04 13:02:03;;;;;;;4.40;4.00;;;;;;;;;;4985637;28;20334;-84
2022/04/04 13:04:30;;;;;;;3.40;3.10;;;;;;;;;;4985852;28;20208;-84
2022/04/04 13:06:58;;;;;;;3.80;3.40;;;;;;;;;;5001057;28;20235;-84
2022/04/04 13:09:25;;;;;;;6.47;3.80;;;;;;;;;;5003479;28;20226;-84
2022/04/04 13:11:53;;;;;;;3.67;3.37;;;;;;;;;;4992381;28;20244;-84
2022/04/04 13:14:22;;;;;;;4.50;3.67;;;;;;;;;;4992297;28;20278;-84
2022/04/04 13:16:51;;;;;;;5.67;3.77;;;;;;;;;;4991701;28;20240;-84
2022/04/04 13:19:18;;;;;;;4.07;3.67;;;;;;;;;;4992102;28;20208;-84
2022/04/04 13:21:48;;;;;;;5.53;3.40;;;;;;;;;;4991658;28;20247;-84
2022/04/04 13:24:15;;;;;;;4.00;3.60;;;;;;;;;;4992780;28;20278;-84
2022/04/04 13:26:42;;;;;;;3.90;3.50;;;;;;;;;;4992007;28;20240;-84
2022/04/04 13:29:10;;;;;;;4.00;3.70;;;;;;;;;;4991219;28;20216;-84
2022/04/04 13:31:38;;;;;;;4.43;3.80;;;;;;;;;;4991750;28;20244;-84
2022/04/04 13:34:06;;;;;;;4.33;3.93;;;;;;;;;;4995444;28;20664;-84
2022/04/04 13:36:33;;;;;;;3.70;3.40;;;;;;;;;;4998567;28;20294;-83
2022/04/04 13:39:00;;;;;;;3.53;3.23;;;;;;;;;;4997729;28;20627;-84
2022/04/04 13:41:28;;;;;;;6.60;3.60;;;;;;;;;;4999966;28;20244;-84
2022/04/04 13:43:55;;;;;;;3.93;3.43;;;;;;;;;;5000615;28;20235;-85
2022/04/04 13:46:23;;;;;;;3.57;3.27;;;;;;;;;;5002763;28;20239;-84
2022/04/04 13:48:52;;;;;;;4.37;3.70;;;;;;;;;;5002356;28;20204;-85
2022/04/04 13:51:22;;;;;;;3.83;3.47;;;;;;;;;;5003240;28;20326;-84
2022/04/04 13:53:49;;;;;;;3.73;3.40;;;;;;;;;;4999289;28;20216;-85
2022/04/04 13:56:26;;;;;;;3.30;3.00;;;;;;;;;;4997705;28;20231;-83
2022/04/04 13:58:54;;;;;;;3.57;3.30;;;;;;;;;;4997005;28;20223;-84
2022/04/04 14:01:22;;;;;;;3.50;3.03;;;;;;;;;;4994768;28;20246;-81
2022/04/04 14:03:51;;;;;;;3.87;2.87;;;;;;;;;;4996038;28;20300;-81
2022/04/04 14:06:19;;;;;;;2.80;2.60;;;;;;;;;;4994826;28;20270;-82
2022/04/04 14:08:46;;;;;;;3.57;3.27;;;;;;;;;;4995624;28;20204;-83
2022/04/04 14:11:14;;;;;;;3.57;3.27;;;;;;;;;;4994903;28;20240;-84
2022/04/04 14:13:42;;;;;;;5.13;3.60;;;;;;;;;;4995525;28;20223;-85
2022/04/04 14:16:09;;;;;;;3.90;3.50;;;;;;;;;;4994789;28;20271;-85
2022/04/04 14:18:36;;;;;;;4.07;3.33;;;;;;;;;;4995234;28;20677;-85
2022/04/04 14:21:05;;;;;;;4.37;3.30;;;;;;;;;;4994948;28;20244;-83
2022/04/04 14:23:34;;;;;;;3.70;3.20;;;;;;;;;;4996245;28;20642;-83
2022/04/04 14:26:02;;;;;;;3.23;3.00;;;;;;;;;;4995365;28;20323;-83
2022/04/04 14:28:29;;;;;;;4.77;3.20;;;;;;;;;;4996303;28;20234;-83
2022/04/04 14:30:57;;;;;;;4.50;3.23;;;;;;;;;;4994696;28;20848;-84
2022/04/04 14:33:25;;;;;;;3.17;2.87;;;;;;;;;;4997828;28;20590;-83
2022/04/04 14:35:52;;;;;;;3.63;3.30;;;;;;;;;;4999107;28;20240;-81
2022/04/04 14:38:21;;;;;;;3.73;3.20;;;;;;;;;;5001094;28;20296;-82
2022/04/04 14:40:49;;;;;;;4.00;3.70;;;;;;;;;;4998390;28;20274;-83
2022/04/04 14:43:16;;;;;;;4.30;3.90;;;;;;;;;;4996256;28;20207;-83
2022/04/04 14:45:43;;;;;;;3.97;3.53;;;;;;;;;;4982453;28;20602;-83
2022/04/04 14:48:10;;;;;;;3.90;3.60;;;;;;;;;;4997555;28;20209;-82
2022/04/04 14:50:39;;;;;;;3.77;3.27;;;;;;;;;;4995994;28;20271;-83
2022/04/04 14:53:07;;;;;;;4.53;3.67;;;;;;;;;;4995929;28;20211;-83
2022/04/04 14:55:35;;;;;;;7.17;4.20;;;;;;;;;;4997891;28;20243;-83